createdAt,value
2022-10-16T00:00:32.595Z,100440.19
2022-10-16T00:01:36.063Z,100439.34
2022-10-16T00:02:38.241Z,100438.53
2022-10-16T00:03:42.153Z,100443.88
2022-10-16T00:04:44.208Z,100443.09
2022-10-16T00:05:47.110Z,100442.25
2022-10-16T00:06:49.093Z,100444.94
2022-10-16T00:07:52.182Z,100445.97
2022-10-16T00:08:55.289Z,100446.81
2022-10-16T00:09:58.563Z,100440.59
2022-10-16T00:11:04.035Z,100443.28
2022-10-16T00:12:07.721Z,100445.97
2022-10-16T00:13:09.821Z,100453.25
2022-10-16T00:14:15.222Z,100449.72
2022-10-16T00:15:17.577Z,100450.56
2022-10-16T00:16:21.017Z,100451.34
2022-10-16T00:17:22.998Z,100448.66
2022-10-16T00:18:26.581Z,100443.75
2022-10-16T00:19:29.496Z,100451.34
2022-10-16T00:20:32.328Z,100449.50
2022-10-16T00:21:53.754Z,100442.25
2022-10-16T00:23:14.123Z,100449.50
2022-10-16T00:24:17.202Z,100452.19
2022-10-16T00:25:19.208Z,100451.16
2022-10-16T00:26:24.059Z,100451.94
2022-10-16T00:27:26.045Z,100451.16
2022-10-16T00:28:29.615Z,100452.78
2022-10-16T00:29:31.626Z,100446.34
2022-10-16T00:30:34.579Z,100456.28
2022-10-16T00:31:37.339Z,100444.72
2022-10-16T00:32:40.317Z,100449.25
2022-10-16T00:33:42.412Z,100450.91
2022-10-16T00:34:45.437Z,100445.19
2022-10-16T00:35:47.806Z,100447.16
2022-10-16T00:36:50.778Z,100452.53
2022-10-16T00:37:52.779Z,100464.91
2022-10-16T00:38:58.505Z,100465.75
2022-10-16T00:40:00.510Z,100466.56
2022-10-16T00:41:03.533Z,100461.19
2022-10-16T00:42:06.873Z,100467.41
2022-10-16T00:43:15.592Z,100466.56
2022-10-16T00:44:43.755Z,100460.13
2022-10-16T00:45:46.926Z,100466.34
2022-10-16T00:46:49.581Z,100466.34
2022-10-16T00:47:54.409Z,100468.19
2022-10-16T00:49:01.569Z,100470.41
2022-10-16T00:50:10.135Z,100475.00
2022-10-16T00:51:12.400Z,100463.19
2022-10-16T00:52:16.558Z,100468.31
2022-10-16T00:53:18.954Z,100466.69
2022-10-16T00:54:25.124Z,100465.88
2022-10-16T00:55:28.870Z,100475.59
2022-10-16T00:56:32.045Z,100473.94
2022-10-16T00:57:35.508Z,100469.84
2022-10-16T00:58:38.583Z,100465.50
2022-10-16T00:59:42.282Z,100469.84
2022-10-16T01:00:45.335Z,100476.25
2022-10-16T01:01:47.539Z,100473.81
2022-10-16T01:02:55.296Z,100473.81
2022-10-16T01:03:57.234Z,100474.88
2022-10-16T01:05:00.462Z,100475.91
2022-10-16T01:06:20.651Z,100476.97
2022-10-16T01:07:37.914Z,100474.50
2022-10-16T01:08:48.021Z,100481.97
2022-10-16T01:10:04.026Z,100485.72
2022-10-16T01:11:13.296Z,100478.69
2022-10-16T01:12:22.578Z,100483.47
2022-10-16T01:13:31.876Z,100490.13
2022-10-16T01:14:42.654Z,100485.81
2022-10-16T01:15:48.669Z,100488.72
2022-10-16T01:16:57.358Z,100489.16
2022-10-16T01:18:04.185Z,100491.06
2022-10-16T01:19:14.136Z,100490.47
2022-10-16T01:20:25.969Z,100482.63
2022-10-16T01:21:32.594Z,100485.56
2022-10-16T01:22:40.863Z,100483.06
2022-10-16T01:23:53.667Z,100493.25
2022-10-16T01:24:57.544Z,100483.16
2022-10-16T01:26:33.938Z,100484.81
2022-10-16T01:27:39.948Z,100485.06
2022-10-16T01:28:49.791Z,100488.75
2022-10-16T01:29:55.258Z,100479.09
2022-10-16T01:31:01.764Z,100491.69
2022-10-16T01:32:15.527Z,100489.22
2022-10-16T01:33:24.190Z,100487.59
2022-10-16T01:34:33.414Z,100491.31
2022-10-16T01:35:40.623Z,100497.75
2022-10-16T01:36:48.338Z,100489.09
2022-10-16T01:37:56.467Z,100481.25
2022-10-16T01:39:02.524Z,100483.13
2022-10-16T01:40:09.814Z,100489.56
2022-10-16T01:41:18.012Z,100482.53
2022-10-16T01:42:25.265Z,100491.63
2022-10-16T01:43:35.352Z,100498.28
2022-10-16T01:44:39.571Z,100491.25
2022-10-16T01:45:43.683Z,100482.25
2022-10-16T01:46:49.685Z,100487.19
2022-10-16T01:47:54.850Z,100485.53
2022-10-16T01:48:57.425Z,100489.28
2022-10-16T01:50:03.424Z,100481.41
2022-10-16T01:51:09.666Z,100480.59
2022-10-16T01:52:16.633Z,100487.25
2022-10-16T01:53:18.773Z,100484.56
2022-10-16T01:54:23.330Z,100490.13
2022-10-16T01:55:30.129Z,100484.19
2022-10-16T01:56:34.584Z,100493.88
2022-10-16T01:57:40.880Z,100490.34
2022-10-16T01:58:49.418Z,100494.31
2022-10-16T01:59:55.941Z,100496.78
2022-10-16T02:00:59.422Z,100489.78
2022-10-16T02:02:05.507Z,100477.84
2022-10-16T02:03:10.613Z,100486.50
2022-10-16T02:04:20.149Z,100501.78
2022-10-16T02:05:28.383Z,100502.59
2022-10-16T02:06:31.157Z,100503.63
2022-10-16T02:07:34.148Z,100503.84
2022-10-16T02:08:37.108Z,100503.06
2022-10-16T02:09:40.937Z,100497.53
2022-10-16T02:10:43.468Z,100499.56
2022-10-16T02:11:47.158Z,100493.56
2022-10-16T02:12:53.185Z,100498.13
2022-10-16T02:14:03.462Z,100495.06
2022-10-16T02:15:06.079Z,100494.03
2022-10-16T02:16:09.659Z,100497.75
2022-10-16T02:17:13.557Z,100496.94
2022-10-16T02:18:17.017Z,100499.84
2022-10-16T02:19:22.019Z,100490.59
2022-10-16T02:20:34.808Z,100500.06
2022-10-16T02:21:43.830Z,100498.66
2022-10-16T02:22:51.644Z,100498.28
2022-10-16T02:24:04.128Z,100499.91
2022-10-16T02:25:11.224Z,100504.47
2022-10-16T02:26:18.926Z,100502.81
2022-10-16T02:27:27.823Z,100503.88
2022-10-16T02:28:38.291Z,100499.56
2022-10-16T02:29:49.328Z,100503.28
2022-10-16T02:30:55.973Z,100499.19
2022-10-16T02:32:04.007Z,100507.25
2022-10-16T02:33:10.537Z,100510.72
2022-10-16T02:34:16.008Z,100503.34
2022-10-16T02:35:21.414Z,100502.28
2022-10-16T02:36:25.166Z,100507.66
2022-10-16T02:37:29.158Z,100504.19
2022-10-16T02:38:33.013Z,100502.53
2022-10-16T02:39:35.889Z,100508.34
2022-10-16T02:40:39.188Z,100498.44
2022-10-16T02:41:41.167Z,100500.50
2022-10-16T02:42:44.155Z,100500.50
2022-10-16T02:43:46.142Z,100494.53
2022-10-16T02:44:50.443Z,100495.00
2022-10-16T02:45:52.578Z,100504.09
2022-10-16T02:46:55.535Z,100501.66
2022-10-16T02:47:57.708Z,100502.66
2022-10-16T02:49:00.647Z,100502.91
2022-10-16T02:50:02.741Z,100494.47
2022-10-16T02:51:05.923Z,100503.34
2022-10-16T02:52:07.886Z,100499.00
2022-10-16T02:53:10.990Z,100503.56
2022-10-16T02:54:13.997Z,100506.47
2022-10-16T02:55:17.184Z,100499.47
2022-10-16T02:57:22.977Z,100503.41
2022-10-16T02:58:25.262Z,100502.59
2022-10-16T02:59:28.199Z,100505.50
2022-10-16T03:00:31.585Z,100498.50
2022-10-16T03:01:36.588Z,100501.19
2022-10-16T03:02:38.922Z,100496.84
2022-10-16T03:03:42.023Z,100501.38
2022-10-16T03:04:44.051Z,100502.44
2022-10-16T03:05:47.572Z,100503.47
2022-10-16T03:06:49.514Z,100505.34
2022-10-16T03:07:53.592Z,100503.91
2022-10-16T03:08:55.587Z,100497.75
2022-10-16T03:10:01.097Z,100498.19
2022-10-16T03:11:03.114Z,100500.88
2022-10-16T03:12:06.401Z,100498.38
2022-10-16T03:13:08.432Z,100497.59
2022-10-16T03:14:11.398Z,100495.13
2022-10-16T03:15:13.335Z,100500.72
2022-10-16T03:16:17.651Z,100493.69
2022-10-16T03:17:19.805Z,100499.50
2022-10-16T03:18:22.976Z,100496.81
2022-10-16T03:19:25.691Z,100485.28
2022-10-16T03:20:28.654Z,100481.97
2022-10-16T03:21:30.785Z,100492.94
2022-10-16T03:22:33.717Z,100488.63
2022-10-16T03:23:35.705Z,100490.69
2022-10-16T03:24:38.759Z,100489.88
2022-10-16T03:25:40.901Z,100498.97
2022-10-16T03:26:43.898Z,100496.50
2022-10-16T03:27:45.925Z,100495.66
2022-10-16T03:28:48.990Z,100492.38
2022-10-16T03:29:51.027Z,100500.44
2022-10-16T03:30:53.960Z,100499.63
2022-10-16T03:31:57.374Z,100507.88
2022-10-16T03:33:00.322Z,100503.56
2022-10-16T03:34:10.325Z,100506.22
2022-10-16T03:35:13.258Z,100506.44
2022-10-16T03:36:16.131Z,100510.97
2022-10-16T03:37:18.073Z,100507.50
2022-10-16T03:38:21.422Z,100501.53
2022-10-16T03:39:23.382Z,100501.53
2022-10-16T03:40:26.445Z,100499.06
2022-10-16T03:41:28.411Z,100498.84
2022-10-16T03:42:31.317Z,100497.22
2022-10-16T03:43:33.274Z,100494.56
2022-10-16T03:44:36.236Z,100497.22
2022-10-16T03:45:38.203Z,100499.91
2022-10-16T03:46:41.151Z,100498.25
2022-10-16T03:47:44.452Z,100502.59
2022-10-16T03:48:47.457Z,100507.72
2022-10-16T03:49:49.395Z,100501.97
2022-10-16T03:50:52.733Z,100506.91
2022-10-16T03:51:54.689Z,100504.22
2022-10-16T03:52:57.608Z,100504.00
2022-10-16T03:53:59.540Z,100503.16
2022-10-16T03:55:02.636Z,100504.81
2022-10-16T03:56:04.775Z,100499.47
2022-10-16T03:57:07.769Z,100508.31
2022-10-16T03:58:09.927Z,100505.63
2022-10-16T03:59:12.874Z,100513.66
2022-10-16T04:00:15.061Z,100511.81
2022-10-16T04:01:18.085Z,100506.44
2022-10-16T04:02:20.180Z,100505.03
2022-10-16T04:03:24.627Z,100523.13
2022-10-16T04:04:26.590Z,100520.47
2022-10-16T04:05:29.558Z,100522.09
2022-10-16T04:06:31.737Z,100533.63
2022-10-16T04:07:34.666Z,100536.31
2022-10-16T04:08:37.719Z,100540.63
2022-10-16T04:09:40.835Z,100537.75
2022-10-16T04:10:43.753Z,100540.44
2022-10-16T04:11:46.669Z,100536.09
2022-10-16T04:12:48.593Z,100541.22
2022-10-16T04:13:51.504Z,100535.06
2022-10-16T04:14:53.414Z,100543.13
2022-10-16T04:15:56.386Z,100548.25
2022-10-16T04:16:58.285Z,100555.47
2022-10-16T04:18:01.176Z,100550.09
2022-10-16T04:19:04.464Z,100545.78
2022-10-16T04:20:08.420Z,100545.78
2022-10-16T04:21:10.381Z,100548.47
2022-10-16T04:22:13.466Z,100546.81
2022-10-16T04:23:15.470Z,100543.31
2022-10-16T04:24:18.427Z,100545.19
2022-10-16T04:25:20.341Z,100550.53
2022-10-16T04:26:23.284Z,100543.53
2022-10-16T04:27:25.547Z,100550.53
2022-10-16T04:28:28.784Z,100552.63
2022-10-16T04:29:30.763Z,100548.88
2022-10-16T04:30:34.516Z,100543.53
2022-10-16T04:31:36.419Z,100541.91
2022-10-16T04:32:39.329Z,100545.63
2022-10-16T04:33:43.649Z,100545.63
2022-10-16T04:34:47.942Z,100547.25
2022-10-16T04:35:49.907Z,100551.78
2022-10-16T04:36:53.036Z,100548.31
2022-10-16T04:37:55.932Z,100544.81
2022-10-16T04:38:57.877Z,100555.53
2022-10-16T04:40:00.805Z,100552.00
2022-10-16T04:41:02.730Z,100560.06
2022-10-16T04:42:05.694Z,100563.78
2022-10-16T04:43:08.385Z,100554.91
2022-10-16T04:44:11.333Z,100564.81
2022-10-16T04:45:16.302Z,100568.53
2022-10-16T04:46:20.199Z,100568.53
2022-10-16T04:47:22.157Z,100568.75
2022-10-16T04:48:25.234Z,100575.97
2022-10-16T04:49:27.131Z,100580.50
2022-10-16T04:50:31.472Z,100571.88
2022-10-16T04:51:41.643Z,100573.50
2022-10-16T04:52:43.573Z,100571.66
2022-10-16T04:53:46.547Z,100570.00
2022-10-16T04:54:51.230Z,100570.00
2022-10-16T04:55:53.162Z,100563.84
2022-10-16T04:56:56.077Z,100571.88
2022-10-16T04:57:57.999Z,100568.38
2022-10-16T04:59:00.983Z,100571.03
2022-10-16T05:00:04.177Z,100568.38
2022-10-16T05:01:07.104Z,100569.41
2022-10-16T05:02:09.007Z,100564.25
2022-10-16T05:03:12.201Z,100568.81
2022-10-16T05:04:15.954Z,100579.53
2022-10-16T05:05:20.330Z,100572.50
2022-10-16T05:06:23.690Z,100572.50
2022-10-16T05:07:26.920Z,100569.25
2022-10-16T05:08:28.961Z,100568.41
2022-10-16T05:09:31.932Z,100576.66
2022-10-16T05:10:33.814Z,100574.78
2022-10-16T05:11:37.002Z,100574.00
2022-10-16T05:12:38.934Z,100575.63
2022-10-16T05:13:41.828Z,100585.31
2022-10-16T05:14:43.753Z,100579.97
2022-10-16T05:15:49.210Z,100583.44
2022-10-16T05:16:51.569Z,100588.00
2022-10-16T05:17:55.709Z,100585.31
2022-10-16T05:19:22.602Z,100585.31
2022-10-16T05:20:20.568Z,100581.81
2022-10-16T05:21:23.926Z,100582.41
2022-10-16T05:22:26.850Z,100591.47
2022-10-16T05:23:28.780Z,100582.63
2022-10-16T05:24:31.730Z,100586.13
2022-10-16T05:25:33.679Z,100590.69
2022-10-16T05:26:36.587Z,100584.28
2022-10-16T05:27:38.545Z,100584.28
2022-10-16T05:28:41.832Z,100580.75
2022-10-16T05:29:43.818Z,100583.44
2022-10-16T05:30:46.974Z,100576.22
2022-10-16T05:31:51.997Z,100585.31
2022-10-16T05:32:54.876Z,100588.78
2022-10-16T05:33:59.723Z,100586.13
2022-10-16T05:35:02.610Z,100595.59
2022-10-16T05:36:06.221Z,100593.13
2022-10-16T05:37:10.701Z,100602.81
2022-10-16T05:38:12.631Z,100612.69
2022-10-16T05:39:17.083Z,100604.66
2022-10-16T05:40:18.998Z,100610.00
2022-10-16T05:41:22.836Z,100608.16
2022-10-16T05:42:25.876Z,100607.56
2022-10-16T05:43:28.816Z,100605.50
2022-10-16T05:45:34.508Z,100605.50
2022-10-16T05:46:37.403Z,100600.97
2022-10-16T05:47:39.800Z,100607.13
2022-10-16T05:48:42.705Z,100607.13
2022-10-16T05:49:44.600Z,100607.94
2022-10-16T05:50:47.477Z,100599.91
2022-10-16T05:51:49.381Z,100595.38
2022-10-16T05:52:53.632Z,100593.53
2022-10-16T05:53:55.530Z,100598.88
2022-10-16T05:54:58.432Z,100597.84
2022-10-16T05:56:00.904Z,100598.88
2022-10-16T05:57:06.593Z,100608.56
2022-10-16T05:58:08.556Z,100605.88
2022-10-16T05:59:11.633Z,100599.06
2022-10-16T06:00:13.815Z,100612.88
2022-10-16T06:01:18.418Z,100611.25
2022-10-16T06:02:20.399Z,100609.38
2022-10-16T06:03:23.912Z,100608.34
2022-10-16T06:04:25.933Z,100604.81
2022-10-16T06:05:28.837Z,100610.19
2022-10-16T06:06:31.834Z,100596.00
2022-10-16T06:07:36.669Z,100604.03
2022-10-16T06:08:40.431Z,100611.84
2022-10-16T06:09:43.422Z,100605.66
2022-10-16T06:10:45.991Z,100618.22
2022-10-16T06:11:48.858Z,100613.69
2022-10-16T06:12:50.815Z,100608.34
2022-10-16T06:13:55.460Z,100609.97
2022-10-16T06:14:57.409Z,100616.16
2022-10-16T06:16:01.588Z,100612.47
2022-10-16T06:17:03.505Z,100604.41
2022-10-16T06:18:06.461Z,100612.25
2022-10-16T06:19:09.264Z,100610.38
2022-10-16T06:20:12.288Z,100606.66
2022-10-16T06:21:18.929Z,100619.22
2022-10-16T06:22:21.835Z,100618.19
2022-10-16T06:23:23.832Z,100616.34
2022-10-16T06:24:28.180Z,100623.53
2022-10-16T06:25:30.107Z,100621.69
2022-10-16T06:26:33.634Z,100618.19
2022-10-16T06:27:35.615Z,100620.69
2022-10-16T06:28:38.916Z,100618.00
2022-10-16T06:29:41.048Z,100622.31
2022-10-16T06:30:45.018Z,100615.31
2022-10-16T06:31:47.998Z,100618.56
2022-10-16T06:32:49.942Z,100625.59
2022-10-16T06:33:53.591Z,100619.19
2022-10-16T06:34:55.707Z,100622.09
2022-10-16T06:36:02.779Z,100624.09
2022-10-16T06:37:04.735Z,100633.19
2022-10-16T06:38:07.709Z,100629.25
2022-10-16T06:39:09.735Z,100623.69
2022-10-16T06:40:15.606Z,100634.41
2022-10-16T06:41:19.197Z,100642.03
2022-10-16T06:42:22.124Z,100643.03
2022-10-16T06:43:24.067Z,100647.16
2022-10-16T06:44:26.968Z,100648.00
2022-10-16T06:45:29.082Z,100652.09
2022-10-16T06:46:32.179Z,100643.81
2022-10-16T06:47:34.122Z,100659.47
2022-10-16T06:48:37.567Z,100653.09
2022-10-16T06:49:40.556Z,100646.44
2022-10-16T06:50:42.487Z,100650.56
2022-10-16T06:51:45.390Z,100646.41
2022-10-16T06:52:47.369Z,100653.81
2022-10-16T06:54:02.906Z,100653.38
2022-10-16T06:55:07.601Z,100650.84
2022-10-16T06:56:12.438Z,100654.94
2022-10-16T06:57:15.365Z,100652.19
2022-10-16T06:58:17.352Z,100658.78
2022-10-16T06:59:20.492Z,100658.13
2022-10-16T07:00:22.423Z,100662.84
2022-10-16T07:01:28.044Z,100663.00
2022-10-16T07:02:30.191Z,100673.06
2022-10-16T07:03:34.085Z,100660.88
2022-10-16T07:04:37.215Z,100668.25
2022-10-16T07:05:40.570Z,100674.00
2022-10-16T07:06:43.449Z,100678.69
2022-10-16T07:07:45.395Z,100672.66
2022-10-16T07:08:48.574Z,100675.72
2022-10-16T07:09:50.470Z,100674.28
2022-10-16T07:11:00.663Z,100681.66
2022-10-16T07:12:05.375Z,100673.16
2022-10-16T07:13:08.577Z,100678.91
2022-10-16T07:14:17.278Z,100684.66
2022-10-16T07:15:19.157Z,100682.34
2022-10-16T07:16:23.397Z,100679.44
2022-10-16T07:17:26.291Z,100684.56
2022-10-16T07:19:34.611Z,100671.53
2022-10-16T07:20:36.685Z,100682.88
2022-10-16T07:21:40.070Z,100682.88
2022-10-16T07:22:42.025Z,100675.41
2022-10-16T07:23:45.334Z,100684.31
2022-10-16T07:24:52.386Z,100681.63
2022-10-16T07:25:56.583Z,100683.25
2022-10-16T07:26:58.570Z,100691.31
2022-10-16T07:28:02.848Z,100704.50
2022-10-16T07:29:05.044Z,100699.13
2022-10-16T07:30:09.370Z,100704.06
2022-10-16T07:31:14.086Z,100687.94
2022-10-16T07:32:17.008Z,100708.97
2022-10-16T07:33:19.018Z,100712.03
2022-10-16T07:34:23.360Z,100721.53
2022-10-16T07:35:25.254Z,100712.78
2022-10-16T07:36:28.331Z,100712.09
2022-10-16T07:37:30.412Z,100706.31
2022-10-16T07:38:33.419Z,100729.81
2022-10-16T07:39:36.307Z,100717.59
2022-10-16T07:40:38.258Z,100714.22
2022-10-16T07:41:41.137Z,100712.69
2022-10-16T07:42:43.722Z,100720.34
2022-10-16T07:43:50.003Z,100722.56
2022-10-16T07:44:52.867Z,100717.56
2022-10-16T07:45:56.040Z,100711.94
2022-10-16T07:46:59.888Z,100721.66
2022-10-16T07:48:01.813Z,100718.50
2022-10-16T07:49:04.837Z,100712.94
2022-10-16T07:50:07.112Z,100716.19
2022-10-16T07:51:11.172Z,100722.38
2022-10-16T07:52:14.072Z,100718.63
2022-10-16T07:53:16.439Z,100725.69
2022-10-16T07:54:19.338Z,100720.31
2022-10-16T07:55:21.248Z,100722.16
2022-10-16T07:56:24.437Z,100730.22
2022-10-16T07:57:27.669Z,100735.59
2022-10-16T07:58:30.273Z,100733.16
2022-10-16T07:59:34.512Z,100736.88
2022-10-16T08:00:38.083Z,100733.59
2022-10-16T08:01:41.204Z,100749.13
2022-10-16T08:02:43.231Z,100735.69
2022-10-16T08:03:47.438Z,100742.34
2022-10-16T08:04:51.197Z,100749.59
2022-10-16T08:05:54.226Z,100751.06
2022-10-16T08:06:56.135Z,100740.31
2022-10-16T08:07:59.133Z,100743.00
2022-10-16T08:09:01.033Z,100743.25
2022-10-16T08:10:04.787Z,100745.09
2022-10-16T08:11:06.711Z,100747.78
2022-10-16T08:12:11.423Z,100759.38
2022-10-16T08:13:16.061Z,100750.47
2022-10-16T08:14:19.357Z,100749.44
2022-10-16T08:15:22.913Z,100749.44
2022-10-16T08:16:26.129Z,100758.75
2022-10-16T08:17:28.593Z,100759.13
2022-10-16T08:18:31.716Z,100751.91
2022-10-16T08:19:35.569Z,100741.16
2022-10-16T08:20:38.448Z,100745.25
2022-10-16T08:21:41.310Z,100745.03
2022-10-16T08:22:43.209Z,100751.81
2022-10-16T08:23:46.106Z,100760.25
2022-10-16T08:24:49.049Z,100753.59
2022-10-16T08:25:51.071Z,100760.16
2022-10-16T08:26:55.843Z,100756.78
2022-10-16T08:27:57.871Z,100755.53
2022-10-16T08:29:00.851Z,100758.59
2022-10-16T08:30:02.909Z,100757.31
2022-10-16T08:31:13.085Z,100757.91
2022-10-16T08:32:15.081Z,100752.06
2022-10-16T08:33:18.041Z,100757.44
2022-10-16T08:34:21.235Z,100759.47
2022-10-16T08:35:23.150Z,100753.88
2022-10-16T08:36:26.137Z,100766.88
2022-10-16T08:37:31.037Z,100764.78
2022-10-16T08:38:34.513Z,100762.66
2022-10-16T08:39:37.380Z,100760.59
2022-10-16T08:40:39.479Z,100766.56
2022-10-16T08:42:07.401Z,100761.78
2022-10-16T08:43:27.438Z,100759.91
2022-10-16T08:44:45.011Z,100759.09
2022-10-16T08:46:06.707Z,100766.69
2022-10-16T08:47:18.534Z,100759.44
2022-10-16T08:48:24.910Z,100756.53
2022-10-16T08:49:27.982Z,100760.84
2022-10-16T08:50:32.598Z,100755.84
2022-10-16T08:51:41.742Z,100759.94
2022-10-16T08:52:46.440Z,100763.00
2022-10-16T08:53:54.884Z,100759.84
2022-10-16T08:54:57.526Z,100770.97
2022-10-16T08:56:00.519Z,100780.22
2022-10-16T08:57:10.982Z,100775.78
2022-10-16T08:58:15.755Z,100780.94
2022-10-16T08:59:19.528Z,100780.84
2022-10-16T09:00:23.225Z,100778.28
2022-10-16T09:01:35.073Z,100782.16
2022-10-16T09:02:42.732Z,100783.91
2022-10-16T09:03:59.943Z,100788.59
2022-10-16T09:05:23.262Z,100787.09
2022-10-16T09:06:37.677Z,100786.97
2022-10-16T09:07:49.181Z,100791.09
2022-10-16T09:09:07.248Z,100800.56
2022-10-16T09:10:23.260Z,100796.63
2022-10-16T09:11:40.599Z,100793.44
2022-10-16T09:12:54.063Z,100793.81
2022-10-16T09:14:06.901Z,100792.25
2022-10-16T09:15:21.080Z,100802.38
2022-10-16T09:16:30.217Z,100797.09
2022-10-16T09:17:45.272Z,100800.97
2022-10-16T09:18:53.918Z,100795.94
2022-10-16T09:20:05.919Z,100807.06
2022-10-16T09:21:16.018Z,100811.19
2022-10-16T09:22:19.075Z,100825.22
2022-10-16T09:23:27.299Z,100807.78
2022-10-16T09:24:29.507Z,100818.09
2022-10-16T09:25:34.648Z,100814.91
2022-10-16T09:26:37.527Z,100827.13
2022-10-16T09:27:39.527Z,100817.72
2022-10-16T09:28:43.003Z,100818.31
2022-10-16T09:29:45.024Z,100818.31
2022-10-16T09:30:50.859Z,100825.56
2022-10-16T09:31:54.057Z,100821.00
2022-10-16T09:33:00.758Z,100818.31
2022-10-16T09:34:07.233Z,100818.91
2022-10-16T09:35:17.337Z,100820.41
2022-10-16T09:36:21.488Z,100817.38
2022-10-16T09:37:26.021Z,100813.63
2022-10-16T09:38:31.300Z,100808.22
2022-10-16T09:39:45.418Z,100811.88
2022-10-16T09:40:52.132Z,100810.56
2022-10-16T09:42:02.599Z,100814.44
2022-10-16T09:43:18.100Z,100815.03
2022-10-16T09:44:26.387Z,100815.34
2022-10-16T09:45:28.375Z,100820.28
2022-10-16T09:46:33.508Z,100824.38
2022-10-16T09:47:43.475Z,100817.69
2022-10-16T09:48:51.450Z,100834.22
2022-10-16T09:49:56.420Z,100826.69
2022-10-16T09:51:00.615Z,100826.25
2022-10-16T09:52:07.840Z,100826.56
2022-10-16T09:53:12.882Z,100829.84
2022-10-16T09:54:17.893Z,100827.50
2022-10-16T09:55:19.859Z,100826.66
2022-10-16T09:56:25.078Z,100836.28
2022-10-16T09:57:28.984Z,100842.03
2022-10-16T09:58:31.172Z,100839.66
2022-10-16T09:59:34.491Z,100851.06
2022-10-16T10:00:37.159Z,100850.56
2022-10-16T10:01:42.121Z,100852.78
2022-10-16T10:02:44.854Z,100849.59
2022-10-16T10:03:50.596Z,100847.25
2022-10-16T10:04:55.122Z,100849.50
2022-10-16T10:06:01.287Z,100849.81
2022-10-16T10:07:05.229Z,100859.09
2022-10-16T10:08:09.482Z,100853.47
2022-10-16T10:09:22.023Z,100855.44
2022-10-16T10:10:25.858Z,100865.19
2022-10-16T10:11:47.537Z,100855.53
2022-10-16T10:12:50.729Z,100867.16
2022-10-16T10:13:52.639Z,100860.69
2022-10-16T10:14:58.500Z,100860.44
2022-10-16T10:16:00.399Z,100861.03
2022-10-16T10:17:14.083Z,100867.00
2022-10-16T10:18:20.492Z,100863.00
2022-10-16T10:19:28.063Z,100859.25
2022-10-16T10:20:35.630Z,100867.09
2022-10-16T10:21:39.492Z,100859.00
2022-10-16T10:22:45.324Z,100862.28
2022-10-16T10:23:56.767Z,100854.19
2022-10-16T10:25:09.951Z,100861.22
2022-10-16T10:26:19.445Z,100862.88
2022-10-16T10:27:24.127Z,100866.13
2022-10-16T10:28:40.761Z,100865.06
2022-10-16T10:29:55.005Z,100865.06
2022-10-16T10:31:08.565Z,100861.31
2022-10-16T10:32:21.282Z,100861.88
2022-10-16T10:33:33.157Z,100871.38
2022-10-16T10:35:04.482Z,100866.31
2022-10-16T10:36:21.177Z,100865.84
2022-10-16T10:37:35.775Z,100872.38
2022-10-16T10:38:47.737Z,100865.09
2022-10-16T10:39:58.441Z,100873.56
2022-10-16T10:41:07.656Z,100870.59
2022-10-16T10:42:20.680Z,100877.63
2022-10-16T10:43:40.097Z,100880.09
2022-10-16T10:45:04.342Z,100871.28
2022-10-16T10:46:12.388Z,100877.81
2022-10-16T10:47:25.672Z,100868.97
2022-10-16T10:48:49.444Z,100877.19
2022-10-16T10:50:03.087Z,100877.81
2022-10-16T10:51:11.833Z,100882.75
2022-10-16T10:52:38.867Z,100880.34
2022-10-16T10:53:50.553Z,100868.75
2022-10-16T10:54:58.904Z,100880.13
2022-10-16T10:56:13.656Z,100874.72
2022-10-16T10:57:24.483Z,100873.06
2022-10-16T10:59:04.027Z,100881.75
2022-10-16T11:00:18.835Z,100875.53
2022-10-16T11:01:29.754Z,100876.13
2022-10-16T11:02:37.203Z,100879.41
2022-10-16T11:04:05.332Z,100870.72
2022-10-16T11:05:27.245Z,100887.28
2022-10-16T11:06:34.780Z,100891.63
2022-10-16T11:07:45.683Z,100890.56
2022-10-16T11:08:53.175Z,100884.91
2022-10-16T11:10:00.524Z,100894.66
2022-10-16T11:11:06.958Z,100890.91
2022-10-16T11:12:16.907Z,100895.81
2022-10-16T11:13:29.231Z,100896.63
2022-10-16T11:14:36.049Z,100897.19
2022-10-16T11:15:41.638Z,100896.13
2022-10-16T11:16:49.272Z,100903.19
2022-10-16T11:17:57.117Z,100905.88
2022-10-16T11:19:04.870Z,100896.72
2022-10-16T11:20:17.263Z,100901.28
2022-10-16T11:21:26.063Z,100903.75
2022-10-16T11:22:36.268Z,100899.16
2022-10-16T11:23:43.743Z,100914.56
2022-10-16T11:24:51.211Z,100908.91
2022-10-16T11:25:55.176Z,100914.06
2022-10-16T11:27:02.530Z,100926.31
2022-10-16T11:28:12.561Z,100911.44
2022-10-16T11:29:21.594Z,100900.78
2022-10-16T11:30:26.067Z,100922.84
2022-10-16T11:31:38.650Z,100920.16
2022-10-16T11:32:55.315Z,100915.81
2022-10-16T11:34:04.958Z,100930.97
2022-10-16T11:35:16.749Z,100914.72
2022-10-16T11:36:27.922Z,100931.53
2022-10-16T11:37:38.607Z,100937.53
2022-10-16T11:38:44.522Z,100929.97
2022-10-16T11:39:48.333Z,100941.88
2022-10-16T11:40:55.671Z,100941.88
2022-10-16T11:42:04.589Z,100936.03
2022-10-16T11:43:15.778Z,100939.91
2022-10-16T11:44:29.819Z,100936.69
2022-10-16T11:45:37.253Z,100942.19
2022-10-16T11:46:59.018Z,100937.91
2022-10-16T11:48:14.762Z,100937.16
2022-10-16T11:49:23.533Z,100938.78
2022-10-16T11:50:32.608Z,100942.91
2022-10-16T11:51:41.112Z,100945.59
2022-10-16T11:52:53.191Z,100942.91
2022-10-16T11:54:01.418Z,100953.72
2022-10-16T11:55:11.861Z,100945.59
2022-10-16T11:56:19.048Z,100951.03
2022-10-16T11:57:25.265Z,100942.31
2022-10-16T11:58:35.258Z,100948.56
2022-10-16T11:59:43.937Z,100954.78
2022-10-16T12:00:53.041Z,100947.50
2022-10-16T12:02:00.954Z,100959.97
2022-10-16T12:03:13.659Z,100958.06
2022-10-16T12:04:28.543Z,100955.34
2022-10-16T12:05:41.928Z,100955.34
2022-10-16T12:06:52.064Z,100964.56
2022-10-16T12:08:04.048Z,100958.56
2022-10-16T12:09:07.432Z,100957.75
2022-10-16T12:10:22.485Z,100965.84
2022-10-16T12:11:38.824Z,100972.34
2022-10-16T12:12:41.113Z,100968.81
2022-10-16T12:13:44.987Z,100968.25
2022-10-16T12:15:11.170Z,100970.94
2022-10-16T12:16:24.149Z,100978.03
2022-10-16T12:17:29.723Z,100970.94
2022-10-16T12:18:31.968Z,100985.06
2022-10-16T12:19:35.246Z,100975.56
2022-10-16T12:20:38.335Z,100975.88
2022-10-16T12:21:42.151Z,100972.09
2022-10-16T12:22:51.538Z,100975.88
2022-10-16T12:23:56.922Z,100983.75
2022-10-16T12:24:59.546Z,100984.56
2022-10-16T12:26:03.660Z,100976.69
2022-10-16T12:27:21.798Z,100982.94
2022-10-16T12:28:28.921Z,100989.97
2022-10-16T12:29:36.893Z,100996.47
2022-10-16T12:30:38.860Z,100989.19
2022-10-16T12:31:57.226Z,100984.56
2022-10-16T12:33:03.393Z,100991.88